sensor_id;sensor_type;location;lat;lon;timestamp;pressure;altitude;pressure_sealevel;temperature;humidity
66430;BME280;53242;51.694;10.006;2022-07-10T00:00:21;100365.44;;;15.90;55.58
66430;BME280;53242;51.694;10.006;2022-07-10T00:02:43;100357.88;;;15.87;55.34
66430;BME280;53242;51.694;10.006;2022-07-10T00:05:08;100368.31;;;15.88;55.51
66430;BME280;53242;51.694;10.006;2022-07-10T00:07:31;100362.56;;;15.85;55.71
66430;BME280;53242;51.694;10.006;2022-07-10T00:09:54;100364.38;;;15.77;56.10
66430;BME280;53242;51.694;10.006;2022-07-10T00:12:16;100360.94;;;15.84;55.98
66430;BME280;53242;51.694;10.006;2022-07-10T00:14:39;100358.88;;;15.66;56.77
66430;BME280;53242;51.694;10.006;2022-07-10T00:17:02;100363.38;;;15.72;56.59
66430;BME280;53242;51.694;10.006;2022-07-10T00:19:24;100352.94;;;15.70;56.51
66430;BME280;53242;51.694;10.006;2022-07-10T00:21:46;100369.75;;;15.57;56.80
66430;BME280;53242;51.694;10.006;2022-07-10T00:24:09;100363.19;;;15.67;56.61
66430;BME280;53242;51.694;10.006;2022-07-10T00:26:32;100356.81;;;15.74;56.50
66430;BME280;53242;51.694;10.006;2022-07-10T00:28:55;100353.53;;;15.79;56.72
66430;BME280;53242;51.694;10.006;2022-07-10T00:31:17;100347.84;;;15.82;56.40
66430;BME280;53242;51.694;10.006;2022-07-10T00:33:39;100348.25;;;15.86;56.49
66430;BME280;53242;51.694;10.006;2022-07-10T00:36:02;100345.59;;;15.86;56.41
66430;BME280;53242;51.694;10.006;2022-07-10T00:38:25;100345.16;;;15.75;56.82
66430;BME280;53242;51.694;10.006;2022-07-10T00:40:47;100344.75;;;15.72;56.92
66430;BME280;53242;51.694;10.006;2022-07-10T00:43:10;100336.13;;;15.76;56.99
66430;BME280;53242;51.694;10.006;2022-07-10T00:45:33;100339.63;;;15.77;56.89
66430;BME280;53242;51.694;10.006;2022-07-10T00:47:55;100336.56;;;15.67;56.63
66430;BME280;53242;51.694;10.006;2022-07-10T00:50:18;100335.53;;;15.74;56.33
66430;BME280;53242;51.694;10.006;2022-07-10T00:52:40;100339.22;;;15.73;56.38
66430;BME280;53242;51.694;10.006;2022-07-10T00:55:03;100338.81;;;15.70;56.54
66430;BME280;53242;51.694;10.006;2022-07-10T00:57:26;100331.25;;;15.67;56.52
66430;BME280;53242;51.694;10.006;2022-07-10T00:59:49;100338.41;;;15.66;56.39
66430;BME280;53242;51.694;10.006;2022-07-10T01:02:13;100330.03;;;15.62;56.53
66430;BME280;53242;51.694;10.006;2022-07-10T01:04:36;100329.03;;;15.43;56.84
66430;BME280;53242;51.694;10.006;2022-07-10T01:06:58;100329.44;;;15.54;56.70
66430;BME280;53242;51.694;10.006;2022-07-10T01:09:21;100332.47;;;15.51;56.78
66430;BME280;53242;51.694;10.006;2022-07-10T01:11:43;100333.53;;;15.50;56.70
66430;BME280;53242;51.694;10.006;2022-07-10T01:14:06;100328.00;;;15.44;56.83
66430;BME280;53242;51.694;10.006;2022-07-10T01:16:29;100332.28;;;15.39;57.22
66430;BME280;53242;51.694;10.006;2022-07-10T01:18:51;100327.78;;;15.33;57.34
66430;BME280;53242;51.694;10.006;2022-07-10T01:21:30;100335.78;;;15.39;57.26
66430;BME280;53242;51.694;10.006;2022-07-10T01:23:54;100332.72;;;15.29;57.63
66430;BME280;53242;51.694;10.006;2022-07-10T01:26:17;100334.53;;;15.35;57.37
66430;BME280;53242;51.694;10.006;2022-07-10T01:28:40;100323.72;;;15.37;57.43
66430;BME280;53242;51.694;10.006;2022-07-10T01:31:02;100318.19;;;15.32;57.64
66430;BME280;53242;51.694;10.006;2022-07-10T01:33:25;100314.31;;;15.34;57.54
66430;BME280;53242;51.694;10.006;2022-07-10T01:35:47;100325.75;;;15.35;57.66
66430;BME280;53242;51.694;10.006;2022-07-10T01:38:10;100324.94;;;15.34;57.74
66430;BME280;53242;51.694;10.006;2022-07-10T01:40:32;100320.44;;;15.35;57.71
66430;BME280;53242;51.694;10.006;2022-07-10T01:42:55;100314.09;;;15.29;57.70
66430;BME280;53242;51.694;10.006;2022-07-10T01:45:17;100315.53;;;15.38;57.59
66430;BME280;53242;51.694;10.006;2022-07-10T01:47:40;100315.72;;;15.23;58.09
66430;BME280;53242;51.694;10.006;2022-07-10T01:50:03;100319.22;;;15.31;57.97
66430;BME280;53242;51.694;10.006;2022-07-10T01:52:26;100320.25;;;15.23;58.20
66430;BME280;53242;51.694;10.006;2022-07-10T01:54:48;100314.28;;;15.21;58.54
66430;BME280;53242;51.694;10.006;2022-07-10T01:57:11;100312.25;;;15.09;58.52
66430;BME280;53242;51.694;10.006;2022-07-10T01:59:33;100320.84;;;15.05;58.34
66430;BME280;53242;51.694;10.006;2022-07-10T02:01:56;100319.63;;;15.07;58.14
66430;BME280;53242;51.694;10.006;2022-07-10T02:04:18;100327.81;;;15.19;57.85
66430;BME280;53242;51.694;10.006;2022-07-10T02:06:59;100327.38;;;15.16;57.62
66430;BME280;53242;51.694;10.006;2022-07-10T02:09:22;100324.53;;;15.04;57.68
66430;BME280;53242;51.694;10.006;2022-07-10T02:11:44;100324.53;;;14.97;57.89
66430;BME280;53242;51.694;10.006;2022-07-10T02:14:07;100322.66;;;14.91;58.12
66430;BME280;53242;51.694;10.006;2022-07-10T02:16:30;100317.13;;;14.99;57.90
66430;BME280;53242;51.694;10.006;2022-07-10T02:18:53;100319.59;;;14.87;57.91
66430;BME280;53242;51.694;10.006;2022-07-10T02:21:15;100316.28;;;14.78;57.78
66430;BME280;53242;51.694;10.006;2022-07-10T02:23:38;100309.56;;;14.76;57.72
66430;BME280;53242;51.694;10.006;2022-07-10T02:26:03;100312.00;;;14.71;58.17
66430;BME280;53242;51.694;10.006;2022-07-10T02:28:25;100306.09;;;14.75;58.05
66430;BME280;53242;51.694;10.006;2022-07-10T02:30:48;100302.22;;;14.85;57.99
66430;BME280;53242;51.694;10.006;2022-07-10T02:33:10;100303.22;;;14.77;58.34
66430;BME280;53242;51.694;10.006;2022-07-10T02:35:33;100296.63;;;14.59;59.13
66430;BME280;53242;51.694;10.006;2022-07-10T02:37:55;100291.31;;;14.59;59.07
66430;BME280;53242;51.694;10.006;2022-07-10T02:40:17;100290.09;;;14.62;58.86
66430;BME280;53242;51.694;10.006;2022-07-10T02:42:40;100288.25;;;14.56;59.21
66430;BME280;53242;51.694;10.006;2022-07-10T02:45:03;100294.78;;;14.60;59.08
66430;BME280;53242;51.694;10.006;2022-07-10T02:47:26;100298.81;;;14.42;60.04
66430;BME280;53242;51.694;10.006;2022-07-10T02:49:48;100297.00;;;14.43;59.92
66430;BME280;53242;51.694;10.006;2022-07-10T02:52:11;100295.34;;;14.42;60.24
66430;BME280;53242;51.694;10.006;2022-07-10T02:54:33;100289.63;;;14.45;60.34
66430;BME280;53242;51.694;10.006;2022-07-10T02:56:56;100286.97;;;14.45;60.57
66430;BME280;53242;51.694;10.006;2022-07-10T02:59:18;100296.56;;;14.39;60.97
66430;BME280;53242;51.694;10.006;2022-07-10T03:01:41;100285.75;;;14.47;60.94
66430;BME280;53242;51.694;10.006;2022-07-10T03:04:03;100285.75;;;14.47;60.90
66430;BME280;53242;51.694;10.006;2022-07-10T03:06:26;100290.91;;;14.56;60.83
66430;BME280;53242;51.694;10.006;2022-07-10T03:08:49;100289.47;;;14.53;61.13
66430;BME280;53242;51.694;10.006;2022-07-10T03:11:11;100286.19;;;14.58;61.15
66430;BME280;53242;51.694;10.006;2022-07-10T03:13:33;100282.94;;;14.56;61.41
66430;BME280;53242;51.694;10.006;2022-07-10T03:15:56;100287.81;;;14.52;61.64
66430;BME280;53242;51.694;10.006;2022-07-10T03:18:18;100284.94;;;14.40;62.32
66430;BME280;53242;51.694;10.006;2022-07-10T03:20:41;100285.09;;;14.32;62.58
66430;BME280;53242;51.694;10.006;2022-07-10T03:23:03;100275.91;;;14.28;62.65
66430;BME280;53242;51.694;10.006;2022-07-10T03:25:26;100276.53;;;14.30;62.89
66430;BME280;53242;51.694;10.006;2022-07-10T03:27:48;100268.56;;;14.23;63.06
66430;BME280;53242;51.694;10.006;2022-07-10T03:30:11;100264.91;;;14.31;62.86
66430;BME280;53242;51.694;10.006;2022-07-10T03:32:33;100270.81;;;14.33;63.07
66430;BME280;53242;51.694;10.006;2022-07-10T03:34:55;100263.69;;;14.40;62.80
66430;BME280;53242;51.694;10.006;2022-07-10T03:37:18;100270.03;;;14.46;62.62
66430;BME280;53242;51.694;10.006;2022-07-10T03:39:41;100264.72;;;14.46;62.84
66430;BME280;53242;51.694;10.006;2022-07-10T03:42:03;100270.66;;;14.41;63.45
66430;BME280;53242;51.694;10.006;2022-07-10T03:44:26;100270.44;;;14.50;63.42
66430;BME280;53242;51.694;10.006;2022-07-10T03:46:49;100270.66;;;14.41;63.87
66430;BME280;53242;51.694;10.006;2022-07-10T03:49:11;100263.91;;;14.39;64.07
66430;BME280;53242;51.694;10.006;2022-07-10T03:51:33;100263.69;;;14.47;63.67
66430;BME280;53242;51.694;10.006;2022-07-10T03:53:56;100268.22;;;14.46;63.83
66430;BME280;53242;51.694;10.006;2022-07-10T03:56:18;100266.97;;;14.49;63.91
66430;BME280;53242;51.694;10.006;2022-07-10T03:58:59;100260.66;;;14.57;63.53
66430;BME280;53242;51.694;10.006;2022-07-10T04:01:22;100251.25;;;14.54;63.89
66430;BME280;53242;51.694;10.006;2022-07-10T04:03:44;100245.75;;;14.56;64.06
66430;BME280;53242;51.694;10.006;2022-07-10T04:06:07;100256.97;;;14.58;63.77
66430;BME280;53242;51.694;10.006;2022-07-10T04:08:29;100256.78;;;14.59;63.90
66430;BME280;53242;51.694;10.006;2022-07-10T04:10:52;100252.09;;;14.68;63.73
66430;BME280;53242;51.694;10.006;2022-07-10T04:13:14;100254.53;;;14.63;64.00
66430;BME280;53242;51.694;10.006;2022-07-10T04:15:36;100252.31;;;14.73;63.91
66430;BME280;53242;51.694;10.006;2022-07-10T04:17:59;100259.47;;;14.73;63.84
66430;BME280;53242;51.694;10.006;2022-07-10T04:20:21;100268.28;;;14.80;63.47
66430;BME280;53242;51.694;10.006;2022-07-10T04:22:44;100274.00;;;14.84;63.32
66430;BME280;53242;51.694;10.006;2022-07-10T04:25:07;100268.09;;;14.75;63.84
66430;BME280;53242;51.694;10.006;2022-07-10T04:27:30;100271.97;;;14.72;63.81
66430;BME280;53242;51.694;10.006;2022-07-10T04:29:53;100272.56;;;14.74;63.64
66430;BME280;53242;51.694;10.006;2022-07-10T04:32:15;100274.63;;;14.86;63.58
66430;BME280;53242;51.694;10.006;2022-07-10T04:34:38;100276.44;;;14.72;64.17
66430;BME280;53242;51.694;10.006;2022-07-10T04:37:01;100270.47;;;14.56;64.88
66430;BME280;53242;51.694;10.006;2022-07-10T04:39:23;100277.44;;;14.64;64.66
66430;BME280;53242;51.694;10.006;2022-07-10T04:41:46;100276.81;;;14.62;64.62
66430;BME280;53242;51.694;10.006;2022-07-10T04:44:09;100272.75;;;14.66;64.67
66430;BME280;53242;51.694;10.006;2022-07-10T04:46:31;100276.06;;;14.75;64.57
66430;BME280;53242;51.694;10.006;2022-07-10T04:48:54;100270.09;;;14.73;64.67
66430;BME280;53242;51.694;10.006;2022-07-10T04:51:17;100275.84;;;14.83;64.46
66430;BME280;53242;51.694;10.006;2022-07-10T04:53:39;100266.66;;;14.79;64.68
66430;BME280;53242;51.694;10.006;2022-07-10T04:56:02;100270.94;;;14.80;64.33
66430;BME280;53242;51.694;10.006;2022-07-10T04:58:25;100275.19;;;14.61;65.22
66430;BME280;53242;51.694;10.006;2022-07-10T05:00:47;100270.88;;;14.60;65.25
66430;BME280;53242;51.694;10.006;2022-07-10T05:03:10;100277.63;;;14.62;65.07
66430;BME280;53242;51.694;10.006;2022-07-10T05:05:32;100281.56;;;14.80;64.52
66430;BME280;53242;51.694;10.006;2022-07-10T05:07:55;100280.53;;;14.81;64.38
66430;BME280;53242;51.694;10.006;2022-07-10T05:10:17;100277.69;;;14.89;64.36
66430;BME280;53242;51.694;10.006;2022-07-10T05:12:40;100282.00;;;14.90;64.16
66430;BME280;53242;51.694;10.006;2022-07-10T05:15:03;100280.94;;;14.85;64.25
66430;BME280;53242;51.694;10.006;2022-07-10T05:17:26;100286.25;;;14.85;64.40
66430;BME280;53242;51.694;10.006;2022-07-10T05:19:52;100281.56;;;14.80;64.70
66430;BME280;53242;51.694;10.006;2022-07-10T05:22:15;100288.53;;;14.94;63.97
66430;BME280;53242;51.694;10.006;2022-07-10T05:24:38;100290.97;;;14.89;64.40
66430;BME280;53242;51.694;10.006;2022-07-10T05:27:00;100291.59;;;14.98;64.35
66430;BME280;53242;51.694;10.006;2022-07-10T05:29:23;100299.13;;;14.81;64.98
66430;BME280;53242;51.694;10.006;2022-07-10T05:31:45;100291.19;;;14.88;64.89
66430;BME280;53242;51.694;10.006;2022-07-10T05:34:08;100289.34;;;14.88;64.92
66430;BME280;53242;51.694;10.006;2022-07-10T05:36:30;100293.63;;;14.96;64.68
66430;BME280;53242;51.694;10.006;2022-07-10T05:38:53;100290.19;;;14.95;64.59
66430;BME280;53242;51.694;10.006;2022-07-10T05:41:15;100285.66;;;14.96;64.46
66430;BME280;53242;51.694;10.006;2022-07-10T05:43:38;100287.09;;;14.92;64.72
66430;BME280;53242;51.694;10.006;2022-07-10T05:46:00;100270.34;;;15.11;64.22
66430;BME280;53242;51.694;10.006;2022-07-10T05:48:23;100278.69;;;15.28;63.63
66430;BME280;53242;51.694;10.006;2022-07-10T05:50:45;100285.25;;;15.12;64.22
66430;BME280;53242;51.694;10.006;2022-07-10T05:53:08;100282.19;;;15.36;63.89
66430;BME280;53242;51.694;10.006;2022-07-10T05:55:30;100263.28;;;15.84;62.37
66430;BME280;53242;51.694;10.006;2022-07-10T05:57:53;100266.13;;;16.35;60.96
66430;BME280;53242;51.694;10.006;2022-07-10T06:00:16;100261.81;;;16.34;60.56
66430;BME280;53242;51.694;10.006;2022-07-10T06:02:39;100261.66;;;16.28;60.85
66430;BME280;53242;51.694;10.006;2022-07-10T06:05:01;100271.75;;;16.13;61.28
66430;BME280;53242;51.694;10.006;2022-07-10T06:07:24;100271.72;;;16.20;60.92
66430;BME280;53242;51.694;10.006;2022-07-10T06:09:46;100277.94;;;16.00;61.30
66430;BME280;53242;51.694;10.006;2022-07-10T06:12:09;100284.72;;;15.96;61.60
66430;BME280;53242;51.694;10.006;2022-07-10T06:14:31;100287.00;;;15.92;61.23
66430;BME280;53242;51.694;10.006;2022-07-10T06:16:54;100282.72;;;15.78;61.61
66430;BME280;53242;51.694;10.006;2022-07-10T06:19:16;100282.53;;;15.73;61.21
66430;BME280;53242;51.694;10.006;2022-07-10T06:21:39;100283.53;;;15.78;61.15
66430;BME280;53242;51.694;10.006;2022-07-10T06:24:02;100283.72;;;15.97;60.62
66430;BME280;53242;51.694;10.006;2022-07-10T06:26:24;100277.34;;;15.98;60.13
66430;BME280;53242;51.694;10.006;2022-07-10T06:28:47;100288.56;;;16.07;60.25
66430;BME280;53242;51.694;10.006;2022-07-10T06:31:10;100288.31;;;16.22;59.74
66430;BME280;53242;51.694;10.006;2022-07-10T06:33:33;100288.88;;;16.69;58.20
66430;BME280;53242;51.694;10.006;2022-07-10T06:35:57;100287.47;;;16.60;58.45
66430;BME280;53242;51.694;10.006;2022-07-10T06:38:20;100281.34;;;16.59;58.25
66430;BME280;53242;51.694;10.006;2022-07-10T06:40:43;100281.22;;;16.48;58.76
66430;BME280;53242;51.694;10.006;2022-07-10T06:43:07;100283.75;;;16.68;58.20
66430;BME280;53242;51.694;10.006;2022-07-10T06:45:30;100291.25;;;16.46;58.74
66430;BME280;53242;51.694;10.006;2022-07-10T06:47:52;100288.47;;;16.34;58.68
66430;BME280;53242;51.694;10.006;2022-07-10T06:50:22;100289.97;;;16.23;59.12
66430;BME280;53242;51.694;10.006;2022-07-10T06:52:44;100296.34;;;16.54;58.30
66430;BME280;53242;51.694;10.006;2022-07-10T06:55:07;100291.22;;;16.52;57.98
66430;BME280;53242;51.694;10.006;2022-07-10T06:57:30;100293.78;;;16.34;58.15
66430;BME280;53242;51.694;10.006;2022-07-10T06:59:53;100299.91;;;16.41;57.87
66430;BME280;53242;51.694;10.006;2022-07-10T07:02:16;100298.66;;;16.43;58.20
66430;BME280;53242;51.694;10.006;2022-07-10T07:04:39;100288.34;;;16.54;58.28
66430;BME280;53242;51.694;10.006;2022-07-10T07:07:02;100289.72;;;16.63;58.23
66430;BME280;53242;51.694;10.006;2022-07-10T07:09:25;100290.41;;;16.52;58.23
66430;BME280;53242;51.694;10.006;2022-07-10T07:11:47;100297.78;;;16.50;57.34
66430;BME280;53242;51.694;10.006;2022-07-10T07:14:10;100289.84;;;16.43;57.43
66430;BME280;53242;51.694;10.006;2022-07-10T07:16:32;100286.28;;;16.56;57.25
66430;BME280;53242;51.694;10.006;2022-07-10T07:19:05;100291.72;;;16.68;56.95
66430;BME280;53242;51.694;10.006;2022-07-10T07:21:28;100294.09;;;16.83;56.52
66430;BME280;53242;51.694;10.006;2022-07-10T07:24:09;100299.88;;;16.80;56.62
66430;BME280;53242;51.694;10.006;2022-07-10T07:26:31;100292.34;;;16.70;56.62
66430;BME280;53242;51.694;10.006;2022-07-10T07:28:54;100283.72;;;16.74;56.15
66430;BME280;53242;51.694;10.006;2022-07-10T07:31:16;100282.25;;;16.79;56.20
66430;BME280;53242;51.694;10.006;2022-07-10T07:33:40;100277.22;;;17.21;55.06
66430;BME280;53242;51.694;10.006;2022-07-10T07:36:02;100271.75;;;17.34;54.54
66430;BME280;53242;51.694;10.006;2022-07-10T07:38:25;100269.69;;;17.36;54.46
66430;BME280;53242;51.694;10.006;2022-07-10T07:40:47;100270.88;;;17.59;54.20
66430;BME280;53242;51.694;10.006;2022-07-10T07:43:10;100260.28;;;17.34;54.82
66430;BME280;53242;51.694;10.006;2022-07-10T07:45:34;100278.97;;;17.08;54.30
66430;BME280;53242;51.694;10.006;2022-07-10T07:47:57;100278.19;;;17.01;54.87
66430;BME280;53242;51.694;10.006;2022-07-10T07:50:26;100282.81;;;16.87;55.02
66430;BME280;53242;51.694;10.006;2022-07-10T07:52:49;100286.75;;;16.78;55.18
66430;BME280;53242;51.694;10.006;2022-07-10T07:55:13;100288.66;;;16.71;55.52
66430;BME280;53242;51.694;10.006;2022-07-10T07:57:37;100285.25;;;16.57;55.29
66430;BME280;53242;51.694;10.006;2022-07-10T08:00:00;100280.59;;;17.09;53.86
66430;BME280;53242;51.694;10.006;2022-07-10T08:02:23;100281.78;;;17.14;53.72
66430;BME280;53242;51.694;10.006;2022-07-10T08:04:46;100272.84;;;17.26;53.65
66430;BME280;53242;51.694;10.006;2022-07-10T08:07:08;100276.28;;;17.34;54.00
66430;BME280;53242;51.694;10.006;2022-07-10T08:09:31;100288.97;;;17.38;53.50
66430;BME280;53242;51.694;10.006;2022-07-10T08:11:53;100277.19;;;17.46;53.20
66430;BME280;53242;51.694;10.006;2022-07-10T08:14:15;100283.41;;;17.40;53.15
66430;BME280;53242;51.694;10.006;2022-07-10T08:16:38;100279.69;;;17.41;53.43
66430;BME280;53242;51.694;10.006;2022-07-10T08:19:00;100282.81;;;17.38;53.28
66430;BME280;53242;51.694;10.006;2022-07-10T08:21:23;100275.34;;;17.47;52.87
66430;BME280;53242;51.694;10.006;2022-07-10T08:23:45;100281.09;;;17.43;52.91
66430;BME280;53242;51.694;10.006;2022-07-10T08:26:08;100278.22;;;17.45;53.39
66430;BME280;53242;51.694;10.006;2022-07-10T08:28:30;100276.06;;;17.35;53.60
66430;BME280;53242;51.694;10.006;2022-07-10T08:30:53;100277.56;;;17.50;53.19
66430;BME280;53242;51.694;10.006;2022-07-10T08:33:15;100265.09;;;17.25;53.46
66430;BME280;53242;51.694;10.006;2022-07-10T08:35:38;100267.53;;;17.45;52.92
66430;BME280;53242;51.694;10.006;2022-07-10T08:38:01;100266.59;;;17.58;52.95
66430;BME280;53242;51.694;10.006;2022-07-10T08:40:24;100271.78;;;17.53;53.02
66430;BME280;53242;51.694;10.006;2022-07-10T08:42:46;100267.31;;;17.84;52.17
66430;BME280;53242;51.694;10.006;2022-07-10T08:45:09;100264.00;;;17.88;51.67
66430;BME280;53242;51.694;10.006;2022-07-10T08:47:34;100268.69;;;18.12;50.90
66430;BME280;53242;51.694;10.006;2022-07-10T08:49:57;100273.44;;;18.40;49.82
66430;BME280;53242;51.694;10.006;2022-07-10T08:52:38;100262.91;;;18.57;49.49
66430;BME280;53242;51.694;10.006;2022-07-10T08:55:04;100266.88;;;18.24;49.91
66430;BME280;53242;51.694;10.006;2022-07-10T08:57:27;100274.00;;;18.12;49.69
66430;BME280;53242;51.694;10.006;2022-07-10T08:59:52;100273.78;;;18.13;49.28
66430;BME280;53242;51.694;10.006;2022-07-10T09:02:15;100267.09;;;18.22;48.62
66430;BME280;53242;51.694;10.006;2022-07-10T09:04:38;100265.78;;;18.44;47.95
66430;BME280;53242;51.694;10.006;2022-07-10T09:07:01;100268.00;;;18.47;48.05
66430;BME280;53242;51.694;10.006;2022-07-10T09:09:23;100259.03;;;18.41;48.41
66430;BME280;53242;51.694;10.006;2022-07-10T09:11:46;100276.97;;;18.22;49.29
66430;BME280;53242;51.694;10.006;2022-07-10T09:14:10;100264.50;;;18.16;49.43
66430;BME280;53242;51.694;10.006;2022-07-10T09:16:40;100260.53;;;18.06;49.28
66430;BME280;53242;51.694;10.006;2022-07-10T09:19:16;100265.63;;;18.27;48.74
66430;BME280;53242;51.694;10.006;2022-07-10T09:21:39;100254.31;;;18.55;48.26
66430;BME280;53242;51.694;10.006;2022-07-10T09:24:03;100255.59;;;19.06;47.25
66430;BME280;53242;51.694;10.006;2022-07-10T09:26:29;100244.78;;;18.89;47.66
66430;BME280;53242;51.694;10.006;2022-07-10T09:29:05;100247.69;;;19.12;46.39
66430;BME280;53242;51.694;10.006;2022-07-10T09:31:31;100235.81;;;19.31;44.15
66430;BME280;53242;51.694;10.006;2022-07-10T09:34:09;100240.13;;;19.32;43.80
66430;BME280;53242;51.694;10.006;2022-07-10T09:36:32;100236.25;;;19.40;43.01
66430;BME280;53242;51.694;10.006;2022-07-10T09:38:54;100241.72;;;19.21;42.47
66430;BME280;53242;51.694;10.006;2022-07-10T09:41:24;100235.81;;;19.08;43.07
66430;BME280;53242;51.694;10.006;2022-07-10T09:43:50;100243.63;;;18.97;44.06
66430;BME280;53242;51.694;10.006;2022-07-10T09:46:20;100234.66;;;19.15;43.95
66430;BME280;53242;51.694;10.006;2022-07-10T09:48:43;100225.53;;;19.52;43.76
66430;BME280;53242;51.694;10.006;2022-07-10T09:51:08;100226.94;;;19.43;42.67
66430;BME280;53242;51.694;10.006;2022-07-10T09:53:37;100236.38;;;19.21;43.21
66430;BME280;53242;51.694;10.006;2022-07-10T09:56:01;100237.19;;;18.98;44.15
66430;BME280;53242;51.694;10.006;2022-07-10T09:58:26;100241.38;;;18.94;44.73
66430;BME280;53242;51.694;10.006;2022-07-10T10:00:54;100256.50;;;19.24;45.18
66430;BME280;53242;51.694;10.006;2022-07-10T10:03:18;100252.66;;;19.32;44.76
66430;BME280;53242;51.694;10.006;2022-07-10T10:08:12;100246.34;;;19.50;43.85
66430;BME280;53242;51.694;10.006;2022-07-10T10:10:45;100230.75;;;19.59;43.84
66430;BME280;53242;51.694;10.006;2022-07-10T10:13:10;100223.88;;;19.63;44.25
66430;BME280;53242;51.694;10.006;2022-07-10T10:15:33;100238.91;;;19.52;44.61
66430;BME280;53242;51.694;10.006;2022-07-10T10:17:58;100249.41;;;18.94;46.26
66430;BME280;53242;51.694;10.006;2022-07-10T10:20:20;100243.09;;;18.77;47.22
66430;BME280;53242;51.694;10.006;2022-07-10T10:23:04;100248.25;;;18.60;47.91
66430;BME280;53242;51.694;10.006;2022-07-10T10:25:28;100250.47;;;18.51;48.22
66430;BME280;53242;51.694;10.006;2022-07-10T10:27:51;100248.13;;;18.43;48.71
66430;BME280;53242;51.694;10.006;2022-07-10T10:30:14;100241.88;;;18.61;48.44
66430;BME280;53242;51.694;10.006;2022-07-10T10:32:40;100246.97;;;19.16;47.84
66430;BME280;53242;51.694;10.006;2022-07-10T10:35:03;100235.13;;;19.36;47.27
66430;BME280;53242;51.694;10.006;2022-07-10T10:37:33;100238.94;;;19.40;46.52
66430;BME280;53242;51.694;10.006;2022-07-10T10:39:57;100241.03;;;19.26;46.67
66430;BME280;53242;51.694;10.006;2022-07-10T10:42:36;100250.59;;;19.10;47.68
66430;BME280;53242;51.694;10.006;2022-07-10T10:45:33;100250.00;;;19.08;48.22
66430;BME280;53242;51.694;10.006;2022-07-10T10:48:11;100248.38;;;18.95;48.34
66430;BME280;53242;51.694;10.006;2022-07-10T10:50:46;100237.78;;;19.12;48.28
66430;BME280;53242;51.694;10.006;2022-07-10T10:53:25;100235.44;;;19.51;48.00
66430;BME280;53242;51.694;10.006;2022-07-10T10:58:43;100229.16;;;19.98;42.91
66430;BME280;53242;51.694;10.006;2022-07-10T11:01:26;100233.81;;;20.03;42.87
66430;BME280;53242;51.694;10.006;2022-07-10T11:06:54;100230.84;;;20.16;42.39
66430;BME280;53242;51.694;10.006;2022-07-10T11:12:00;100208.72;;;20.55;41.28
66430;BME280;53242;51.694;10.006;2022-07-10T11:14:24;100222.41;;;20.25;42.52
66430;BME280;53242;51.694;10.006;2022-07-10T11:16:51;100215.78;;;20.61;42.08
66430;BME280;53242;51.694;10.006;2022-07-10T11:19:20;100220.22;;;20.84;41.44
66430;BME280;53242;51.694;10.006;2022-07-10T11:21:46;100222.97;;;20.90;40.04
66430;BME280;53242;51.694;10.006;2022-07-10T11:26:59;100212.88;;;20.97;39.79
66430;BME280;53242;51.694;10.006;2022-07-10T11:29:24;100216.34;;;21.14;38.86
66430;BME280;53242;51.694;10.006;2022-07-10T11:31:53;100213.13;;;21.12;38.36
66430;BME280;53242;51.694;10.006;2022-07-10T11:34:16;100205.53;;;21.09;38.38
66430;BME280;53242;51.694;10.006;2022-07-10T11:36:39;100207.34;;;21.03;38.63
66430;BME280;53242;51.694;10.006;2022-07-10T11:39:07;100200.44;;;21.30;38.14
66430;BME280;53242;51.694;10.006;2022-07-10T11:41:30;100203.06;;;21.47;37.83
66430;BME280;53242;51.694;10.006;2022-07-10T11:43:58;100198.53;;;21.25;37.23
66430;BME280;53242;51.694;10.006;2022-07-10T11:46:22;100201.16;;;21.03;38.12
66430;BME280;53242;51.694;10.006;2022-07-10T11:48:45;100204.84;;;20.80;38.89
66430;BME280;53242;51.694;10.006;2022-07-10T11:51:20;100200.59;;;20.50;40.33
66430;BME280;53242;51.694;10.006;2022-07-10T11:53:55;100215.22;;;20.59;40.48
66430;BME280;53242;51.694;10.006;2022-07-10T11:56:19;100201.38;;;20.33;41.21
66430;BME280;53242;51.694;10.006;2022-07-10T11:58:42;100203.81;;;20.35;41.67
66430;BME280;53242;51.694;10.006;2022-07-10T12:01:04;100208.13;;;20.53;41.58
66430;BME280;53242;51.694;10.006;2022-07-10T12:03:28;100206.53;;;20.52;41.52
66430;BME280;53242;51.694;10.006;2022-07-10T12:05:51;100202.16;;;20.80;41.54
66430;BME280;53242;51.694;10.006;2022-07-10T12:08:14;100200.13;;;20.87;41.47
66430;BME280;53242;51.694;10.006;2022-07-10T12:10:36;100193.09;;;21.20;40.77
66430;BME280;53242;51.694;10.006;2022-07-10T12:13:13;100197.56;;;21.36;39.84
66430;BME280;53242;51.694;10.006;2022-07-10T12:15:38;100196.66;;;21.70;39.39
66430;BME280;53242;51.694;10.006;2022-07-10T12:18:01;100201.03;;;21.76;39.56
66430;BME280;53242;51.694;10.006;2022-07-10T12:20:23;100192.50;;;21.57;39.65
66430;BME280;53242;51.694;10.006;2022-07-10T12:22:46;100190.97;;;21.44;40.05
66430;BME280;53242;51.694;10.006;2022-07-10T12:25:08;100193.81;;;21.15;40.44
66430;BME280;53242;51.694;10.006;2022-07-10T12:27:41;100203.75;;;21.15;41.25
66430;BME280;53242;51.694;10.006;2022-07-10T12:30:04;100205.03;;;21.29;41.20
66430;BME280;53242;51.694;10.006;2022-07-10T12:32:27;100199.22;;;20.98;41.23
66430;BME280;53242;51.694;10.006;2022-07-10T12:34:49;100212.34;;;20.78;41.68
66430;BME280;53242;51.694;10.006;2022-07-10T12:37:15;100215.91;;;20.37;41.94